createdAt,value
2022-12-17T00:01:55.175Z,21.73
2022-12-17T00:04:42.281Z,24.30
2022-12-17T00:07:47.425Z,20.83
2022-12-17T00:10:34.424Z,22.27
2022-12-17T00:13:19.820Z,22.03
2022-12-17T00:16:10.063Z,21.67
2022-12-17T00:18:55.440Z,21.10
2022-12-17T00:21:42.022Z,21.50
2022-12-17T00:24:27.173Z,19.53
2022-12-17T00:27:14.065Z,22.53
2022-12-17T00:29:59.367Z,21.50
2022-12-17T00:32:44.869Z,19.93
2022-12-17T00:35:30.169Z,21.03
2022-12-17T00:38:15.689Z,19.07
2022-12-17T00:41:00.971Z,18.80
2022-12-17T00:43:47.555Z,18.67
2022-12-17T00:46:33.405Z,17.30
2022-12-17T00:49:18.707Z,18.03
2022-12-17T00:52:03.953Z,16.90
2022-12-17T00:54:49.518Z,17.40
2022-12-17T00:57:35.169Z,16.23
2022-12-17T01:00:22.974Z,18.37
2022-12-17T01:03:08.535Z,17.20
2022-12-17T01:05:53.877Z,16.60
2022-12-17T01:08:39.648Z,18.40
2022-12-17T01:11:26.633Z,15.33
2022-12-17T01:14:12.837Z,15.97
2022-12-17T01:16:59.645Z,17.43
2022-12-17T01:19:44.982Z,19.93
2022-12-17T01:22:30.251Z,19.97
2022-12-17T01:25:15.830Z,20.27
2022-12-17T01:28:01.093Z,19.43
2022-12-17T01:30:47.131Z,20.07
2022-12-17T01:33:34.927Z,20.77
2022-12-17T01:36:20.382Z,20.23
2022-12-17T01:39:06.205Z,18.40
2022-12-17T01:41:51.987Z,19.97
2022-12-17T01:45:07.964Z,19.43
2022-12-17T01:48:00.890Z,18.30
2022-12-17T01:50:51.254Z,19.07
2022-12-17T01:53:40.230Z,20.23
2022-12-17T01:56:26.601Z,14.97
2022-12-17T01:59:12.462Z,17.40
2022-12-17T02:01:58.651Z,19.07
2022-12-17T02:04:45.166Z,15.00
2022-12-17T02:07:48.009Z,17.23
2022-12-17T02:10:42.153Z,18.07
2022-12-17T02:13:33.421Z,17.00
2022-12-17T02:16:26.482Z,19.90
2022-12-17T02:19:18.520Z,16.80
2022-12-17T02:22:08.056Z,18.17
2022-12-17T02:25:02.490Z,17.97
2022-12-17T02:27:49.859Z,18.33
2022-12-17T02:30:35.716Z,16.27
2022-12-17T02:33:22.541Z,18.00
2022-12-17T02:36:11.991Z,19.07
2022-12-17T02:38:57.758Z,16.63
2022-12-17T02:41:47.985Z,15.20
2022-12-17T02:44:39.033Z,17.13
2022-12-17T02:47:27.813Z,18.10
2022-12-17T02:50:14.512Z,17.07
2022-12-17T02:53:04.879Z,16.73
2022-12-17T02:55:50.606Z,19.10
2022-12-17T02:58:36.516Z,17.77
2022-12-17T03:01:23.810Z,17.23
2022-12-17T03:04:09.473Z,17.57
2022-12-17T03:06:55.045Z,17.23
2022-12-17T03:09:40.775Z,16.20
2022-12-17T03:12:27.181Z,17.47
2022-12-17T03:15:12.487Z,16.37
2022-12-17T03:17:59.651Z,16.73
2022-12-17T03:20:45.265Z,17.87
2022-12-17T03:23:30.858Z,17.57
2022-12-17T03:26:17.991Z,18.47
2022-12-17T03:29:03.705Z,19.40
2022-12-17T03:31:49.389Z,17.70
2022-12-17T03:34:36.150Z,16.60
2022-12-17T03:37:21.784Z,16.87
2022-12-17T03:40:07.303Z,18.70
2022-12-17T03:42:52.944Z,19.67
2022-12-17T03:45:38.327Z,21.90
2022-12-17T03:48:25.355Z,21.67
2022-12-17T03:51:12.618Z,20.13
2022-12-17T03:53:58.758Z,17.93
2022-12-17T03:56:44.319Z,17.10
2022-12-17T03:59:30.072Z,18.37
2022-12-17T04:02:16.259Z,17.70
2022-12-17T04:05:02.026Z,18.37
2022-12-17T04:07:49.175Z,17.83
2022-12-17T04:10:34.536Z,16.07
2022-12-17T04:13:20.169Z,22.23
2022-12-17T04:16:05.708Z,34.70
2022-12-17T04:18:51.313Z,25.03
2022-12-17T04:21:36.855Z,21.83
2022-12-17T04:24:23.985Z,18.00
2022-12-17T04:27:09.589Z,20.60
2022-12-17T04:29:55.421Z,18.50
2022-12-17T04:32:40.784Z,17.03
2022-12-17T04:35:26.762Z,18.47
2022-12-17T04:38:12.373Z,21.13
2022-12-17T04:40:59.265Z,19.13
2022-12-17T04:43:44.544Z,18.07
2022-12-17T04:46:30.242Z,27.03
2022-12-17T04:49:15.615Z,25.57
2022-12-17T04:52:00.978Z,20.63
2022-12-17T04:54:46.581Z,19.90
2022-12-17T04:57:33.509Z,21.30
2022-12-17T05:00:19.123Z,21.20
2022-12-17T05:03:06.301Z,18.83
2022-12-17T05:06:08.689Z,18.57
2022-12-17T05:08:54.583Z,20.73
2022-12-17T05:11:40.393Z,18.67
2022-12-17T05:14:27.210Z,19.83
2022-12-17T05:17:13.073Z,20.10
2022-12-17T05:19:58.664Z,20.67
2022-12-17T05:22:44.244Z,20.50
2022-12-17T05:25:29.944Z,18.93
2022-12-17T05:28:15.454Z,20.57
2022-12-17T05:31:09.443Z,21.53
2022-12-17T05:33:54.740Z,25.03
2022-12-17T05:36:40.401Z,30.07
2022-12-17T05:39:25.568Z,32.67
2022-12-17T05:42:11.129Z,24.63
2022-12-17T05:44:56.867Z,23.27
2022-12-17T05:47:43.823Z,19.13
2022-12-17T05:50:29.382Z,18.73
2022-12-17T05:53:20.529Z,20.20
2022-12-17T05:56:07.968Z,21.43
2022-12-17T05:58:53.433Z,25.07
2022-12-17T06:01:39.114Z,26.13
2022-12-17T06:04:27.939Z,30.17
2022-12-17T06:07:13.569Z,30.40
2022-12-17T06:09:59.396Z,29.40
2022-12-17T06:12:44.685Z,36.23
2022-12-17T06:15:30.348Z,40.30
2022-12-17T06:18:17.174Z,32.33
2022-12-17T06:21:04.805Z,33.70
2022-12-17T06:23:50.270Z,33.23
2022-12-17T06:26:35.776Z,36.00
2022-12-17T06:29:21.346Z,30.13
2022-12-17T06:32:06.911Z,40.17
2022-12-17T06:34:52.439Z,82.07
2022-12-17T06:37:39.366Z,40.37
2022-12-17T06:40:25.838Z,38.27
2022-12-17T06:43:12.532Z,67.67
2022-12-17T06:45:58.326Z,38.13
2022-12-17T06:48:43.900Z,33.83
2022-12-17T06:51:29.533Z,39.20
2022-12-17T06:54:16.392Z,80.70
2022-12-17T06:57:01.896Z,47.47
2022-12-17T06:59:47.435Z,57.30
2022-12-17T07:02:33.068Z,104.83
2022-12-17T07:05:18.852Z,48.77
2022-12-17T07:08:04.465Z,70.80
2022-12-17T07:10:51.460Z,37.20
2022-12-17T07:13:38.250Z,47.50
2022-12-17T07:16:24.188Z,88.97
2022-12-17T07:19:09.442Z,50.63
2022-12-17T07:21:55.126Z,50.43
2022-12-17T07:24:40.543Z,37.97
2022-12-17T07:27:27.654Z,50.10
2022-12-17T07:30:13.293Z,41.67
2022-12-17T07:32:58.540Z,34.87
2022-12-17T07:35:43.845Z,36.37
2022-12-17T07:38:29.787Z,39.93
2022-12-17T07:41:16.798Z,40.33
2022-12-17T07:44:03.533Z,38.90
2022-12-17T07:46:49.215Z,36.80
2022-12-17T07:49:34.714Z,35.40
2022-12-17T07:52:20.317Z,34.80
2022-12-17T07:55:05.882Z,31.43
2022-12-17T07:57:51.879Z,34.50
2022-12-17T08:00:39.010Z,33.87
2022-12-17T08:03:24.656Z,28.33
2022-12-17T08:06:10.141Z,30.63
2022-12-17T08:08:55.599Z,28.47
2022-12-17T08:11:41.239Z,29.43
2022-12-17T08:14:26.841Z,29.87
2022-12-17T08:17:13.754Z,31.47
2022-12-17T08:20:00.619Z,35.73
2022-12-17T08:22:46.171Z,29.97
2022-12-17T08:25:31.720Z,27.23
2022-12-17T08:28:50.169Z,31.53
2022-12-17T08:31:24.901Z,33.70
2022-12-17T08:34:11.519Z,34.73
2022-12-17T08:36:57.250Z,27.57
2022-12-17T08:39:42.954Z,35.73
2022-12-17T08:42:28.496Z,31.93
2022-12-17T08:45:14.119Z,26.23
2022-12-17T08:48:03.872Z,27.40
2022-12-17T08:50:51.217Z,26.10
2022-12-17T08:53:37.338Z,28.07
2022-12-17T08:56:24.021Z,30.40
2022-12-17T08:59:09.342Z,27.10
2022-12-17T09:01:55.043Z,31.30
2022-12-17T09:04:40.428Z,31.20
2022-12-17T09:07:37.917Z,35.50
2022-12-17T09:10:24.365Z,38.10
2022-12-17T09:13:09.926Z,27.23
2022-12-17T09:15:55.404Z,62.47
2022-12-17T09:18:41.502Z,34.50
2022-12-17T09:21:27.486Z,31.23
2022-12-17T09:24:14.478Z,34.70
2022-12-17T09:26:59.832Z,33.77
2022-12-17T09:29:45.237Z,35.07
2022-12-17T09:32:30.505Z,35.73
2022-12-17T09:35:16.206Z,34.40
2022-12-17T09:38:01.773Z,29.50
2022-12-17T09:40:49.183Z,27.33
2022-12-17T09:43:45.536Z,30.50
2022-12-17T09:46:39.234Z,29.00
2022-12-17T09:49:33.281Z,29.80
2022-12-17T09:52:19.055Z,28.70
2022-12-17T09:55:08.530Z,29.27
2022-12-17T09:57:56.367Z,29.83
2022-12-17T10:00:44.469Z,31.53
2022-12-17T10:03:33.161Z,32.80
2022-12-17T10:06:23.518Z,37.60
2022-12-17T10:09:14.525Z,38.10
2022-12-17T10:12:00.208Z,37.83
2022-12-17T10:14:47.247Z,35.13
2022-12-17T10:17:34.598Z,34.10
2022-12-17T10:20:20.332Z,35.97
2022-12-17T10:23:08.618Z,32.03
2022-12-17T10:25:54.666Z,30.47
2022-12-17T10:28:42.767Z,38.43
2022-12-17T10:31:36.141Z,29.23
2022-12-17T10:34:25.381Z,30.90
2022-12-17T10:37:11.861Z,33.00
2022-12-17T10:39:59.881Z,64.17
2022-12-17T10:42:47.249Z,42.50
2022-12-17T10:45:44.780Z,35.40
2022-12-17T10:48:42.847Z,36.67
2022-12-17T10:51:39.013Z,30.33
2022-12-17T10:54:36.356Z,30.40
2022-12-17T10:57:21.941Z,30.37
2022-12-17T11:00:09.700Z,34.40
2022-12-17T11:02:56.268Z,31.80
2022-12-17T11:05:46.680Z,36.67
2022-12-17T11:08:33.923Z,32.10
2022-12-17T11:11:23.096Z,28.90
2022-12-17T11:14:10.737Z,37.97
2022-12-17T11:17:03.316Z,35.20
2022-12-17T11:19:56.246Z,32.43
2022-12-17T11:22:49.877Z,31.33
2022-12-17T11:25:57.319Z,35.87
2022-12-17T11:28:44.962Z,37.93
2022-12-17T11:31:48.895Z,33.87
2022-12-17T11:34:45.153Z,31.70
2022-12-17T11:37:47.268Z,35.23
2022-12-17T11:40:44.639Z,34.67
2022-12-17T11:43:37.440Z,33.90
2022-12-17T11:46:35.738Z,37.23
2022-12-17T11:49:29.933Z,33.80
2022-12-17T11:52:20.480Z,35.87
2022-12-17T11:55:16.000Z,36.70
2022-12-17T11:58:09.517Z,38.23
2022-12-17T12:01:03.375Z,33.63
2022-12-17T12:03:57.607Z,32.13
2022-12-17T12:06:52.921Z,38.03
2022-12-17T12:09:46.898Z,32.57
2022-12-17T12:12:45.251Z,34.10
2022-12-17T12:15:43.571Z,35.93
2022-12-17T12:18:37.022Z,33.77
2022-12-17T12:21:40.187Z,34.67
2022-12-17T12:24:42.898Z,34.57
2022-12-17T12:27:42.448Z,38.87
2022-12-17T12:30:34.329Z,36.87
2022-12-17T12:33:36.700Z,40.90
2022-12-17T12:36:24.995Z,39.47
2022-12-17T12:39:13.511Z,38.37
2022-12-17T12:42:07.110Z,39.20
2022-12-17T12:45:02.937Z,39.03
2022-12-17T12:47:58.928Z,40.90
2022-12-17T12:50:51.580Z,35.67
2022-12-17T12:53:39.048Z,37.17
2022-12-17T12:56:42.974Z,38.37
2022-12-17T12:59:30.916Z,39.33
2022-12-17T13:02:16.645Z,36.37
2022-12-17T13:05:03.409Z,39.93
2022-12-17T13:07:30.813Z,36.83
2022-12-17T13:09:59.087Z,38.37
2022-12-17T13:12:33.076Z,34.73
2022-12-17T13:15:14.759Z,34.57
2022-12-17T13:17:46.117Z,38.90
2022-12-17T13:20:28.254Z,37.07
2022-12-17T13:23:14.737Z,38.23
2022-12-17T13:25:42.094Z,40.13
2022-12-17T13:28:27.705Z,35.33
2022-12-17T13:31:04.738Z,37.17
2022-12-17T13:33:39.327Z,39.80
2022-12-17T13:36:15.508Z,40.83
2022-12-17T13:38:46.908Z,42.87
2022-12-17T13:41:16.619Z,40.90
2022-12-17T13:43:46.618Z,41.80
2022-12-17T13:46:24.493Z,45.30
2022-12-17T13:48:56.455Z,43.53
2022-12-17T13:51:27.641Z,47.43
2022-12-17T13:53:57.760Z,48.30
2022-12-17T13:56:27.091Z,46.43
2022-12-17T13:58:56.276Z,49.13
2022-12-17T14:01:26.114Z,53.03
2022-12-17T14:04:06.337Z,51.73
2022-12-17T14:06:37.732Z,48.23
2022-12-17T14:09:05.969Z,48.67
2022-12-17T14:11:52.128Z,53.50
2022-12-17T14:14:27.247Z,49.20
2022-12-17T14:16:55.013Z,58.57
2022-12-17T14:19:22.646Z,51.03
2022-12-17T14:21:51.609Z,53.00
2022-12-17T14:24:23.093Z,51.73
2022-12-17T14:26:50.905Z,54.27
2022-12-17T14:29:22.839Z,52.37
2022-12-17T14:31:53.881Z,59.57
2022-12-17T14:34:20.905Z,60.87
2022-12-17T14:36:56.489Z,58.10
2022-12-17T14:39:27.133Z,56.77
2022-12-17T14:42:14.248Z,66.73
2022-12-17T14:44:50.252Z,63.97
2022-12-17T14:47:20.438Z,62.70
2022-12-17T14:50:04.370Z,61.20
2022-12-17T14:52:42.216Z,53.63
2022-12-17T14:55:31.334Z,62.07
2022-12-17T14:58:22.625Z,63.70
2022-12-17T15:00:53.257Z,65.10
2022-12-17T15:03:24.513Z,80.40
2022-12-17T15:05:58.262Z,64.83
2022-12-17T15:08:29.860Z,65.00
2022-12-17T15:10:57.214Z,80.67
2022-12-17T15:13:24.076Z,60.70
2022-12-17T15:15:50.986Z,62.67
2022-12-17T15:18:17.882Z,62.43
2022-12-17T15:20:44.882Z,58.77
2022-12-17T15:23:17.033Z,72.13
2022-12-17T15:25:47.232Z,57.00
2022-12-17T15:28:15.249Z,52.13
2022-12-17T15:30:42.220Z,56.30
2022-12-17T15:33:10.485Z,58.83
2022-12-17T15:35:37.691Z,54.27
2022-12-17T15:38:05.746Z,54.33
2022-12-17T15:40:32.988Z,48.13
2022-12-17T15:43:13.603Z,50.40
2022-12-17T15:45:41.985Z,52.90
2022-12-17T15:48:09.326Z,56.57
2022-12-17T15:50:36.455Z,52.57
2022-12-17T15:53:03.468Z,58.87
2022-12-17T15:55:30.693Z,68.30
2022-12-17T15:57:57.631Z,54.83
2022-12-17T16:00:25.913Z,55.73
2022-12-17T16:02:53.036Z,55.53
2022-12-17T16:05:22.142Z,60.27
2022-12-17T16:07:49.193Z,61.53
2022-12-17T16:10:16.287Z,56.70
2022-12-17T16:12:43.384Z,63.40
2022-12-17T16:15:11.820Z,68.47
2022-12-17T16:17:40.118Z,65.63
2022-12-17T16:20:08.010Z,59.33
2022-12-17T16:22:34.992Z,57.20
2022-12-17T16:25:01.988Z,59.07
2022-12-17T16:27:28.899Z,53.97
2022-12-17T16:29:55.755Z,47.87
2022-12-17T16:32:22.630Z,48.70
2022-12-17T16:34:50.772Z,46.63
2022-12-17T16:37:17.740Z,45.93
2022-12-17T16:39:44.662Z,49.67
2022-12-17T16:42:11.661Z,48.40
2022-12-17T16:44:38.585Z,48.70
2022-12-17T16:47:05.839Z,45.07
2022-12-17T16:49:33.248Z,49.53
2022-12-17T16:52:03.414Z,61.30
2022-12-17T16:54:32.283Z,55.37
2022-12-17T16:57:00.247Z,87.33
2022-12-17T16:59:27.477Z,54.30
2022-12-17T17:01:54.470Z,112.63
2022-12-17T17:04:23.077Z,91.53
2022-12-17T17:06:52.451Z,55.00
2022-12-17T17:09:21.827Z,48.37
2022-12-17T17:11:51.792Z,58.13
2022-12-17T17:14:19.655Z,62.60
2022-12-17T17:16:46.548Z,55.70
2022-12-17T17:19:13.415Z,68.30
2022-12-17T17:21:41.723Z,59.70
2022-12-17T17:24:15.401Z,53.73
2022-12-17T17:26:47.502Z,51.73
2022-12-17T17:29:14.396Z,55.93
2022-12-17T17:34:28.314Z,57.23
2022-12-17T17:36:55.259Z,59.03
2022-12-17T17:39:22.183Z,57.53
2022-12-17T17:41:50.477Z,62.63
2022-12-17T17:44:17.415Z,55.00
2022-12-17T17:46:44.494Z,61.00
2022-12-17T17:49:12.105Z,58.50
2022-12-17T17:54:28.786Z,60.43
2022-12-17T17:56:57.143Z,68.03
2022-12-17T17:59:30.891Z,68.07
2022-12-17T18:02:00.233Z,52.77
2022-12-17T18:04:27.314Z,86.50
2022-12-17T18:07:24.616Z,52.53
2022-12-17T18:09:41.288Z,74.87
2022-12-17T18:12:27.933Z,51.77
2022-12-17T18:15:13.803Z,51.07
2022-12-17T18:17:41.829Z,60.40
2022-12-17T18:20:10.233Z,57.40
2022-12-17T18:22:37.252Z,53.27
2022-12-17T18:25:04.884Z,73.33
2022-12-17T18:27:33.327Z,58.67
2022-12-17T18:30:00.689Z,77.50
2022-12-17T18:32:27.715Z,90.87
2022-12-17T18:34:54.732Z,118.43
2022-12-17T18:37:21.755Z,63.13
2022-12-17T18:39:48.881Z,118.93
2022-12-17T18:42:34.487Z,195.93
2022-12-17T18:45:02.836Z,72.57
2022-12-17T18:47:29.923Z,72.63
2022-12-17T18:49:57.388Z,76.27
2022-12-17T18:52:24.487Z,185.37
2022-12-17T18:54:51.402Z,104.07
2022-12-17T18:57:18.532Z,66.53
2022-12-17T18:59:45.440Z,55.73
2022-12-17T19:02:14.575Z,75.50
2022-12-17T19:04:41.857Z,120.47
2022-12-17T19:07:09.193Z,155.87
2022-12-17T19:09:36.521Z,76.30
2022-12-17T19:12:04.207Z,106.13
2022-12-17T19:14:31.103Z,86.37
2022-12-17T19:16:58.270Z,95.80
2022-12-17T19:19:26.988Z,64.03
2022-12-17T19:21:55.189Z,89.17
2022-12-17T19:24:22.886Z,63.77
2022-12-17T19:26:50.216Z,53.40
2022-12-17T19:29:18.894Z,48.93
2022-12-17T19:31:46.345Z,46.70
2022-12-17T19:34:14.914Z,70.90
2022-12-17T19:36:44.431Z,57.57
2022-12-17T19:39:13.198Z,76.00
2022-12-17T19:41:40.420Z,91.80
2022-12-17T19:44:08.777Z,66.70
2022-12-17T19:46:36.439Z,53.50
2022-12-17T19:49:04.569Z,72.10
2022-12-17T19:51:32.286Z,64.63
2022-12-17T19:54:07.740Z,59.47
2022-12-17T19:56:35.641Z,61.90
2022-12-17T19:59:06.799Z,61.20
2022-12-17T20:01:36.373Z,60.03
2022-12-17T20:04:03.959Z,57.00
2022-12-17T20:06:33.825Z,54.30
2022-12-17T20:09:03.708Z,54.57
2022-12-17T20:11:33.308Z,55.73
2022-12-17T20:14:01.987Z,56.07
2022-12-17T20:16:30.801Z,53.17
2022-12-17T20:18:59.411Z,59.90
2022-12-17T20:21:26.590Z,59.57
2022-12-17T20:23:53.514Z,53.30
2022-12-17T20:26:21.988Z,52.57
2022-12-17T20:28:48.836Z,57.97
2022-12-17T20:31:16.533Z,53.37
2022-12-17T20:33:43.824Z,50.27
2022-12-17T20:36:14.293Z,45.77
2022-12-17T20:38:42.498Z,48.73
2022-12-17T20:41:11.063Z,51.27
2022-12-17T20:43:39.864Z,47.87
2022-12-17T20:46:09.528Z,49.43
2022-12-17T20:48:37.131Z,51.33
2022-12-17T20:51:06.438Z,47.73
2022-12-17T20:53:34.830Z,49.30
2022-12-17T20:56:02.372Z,52.33
2022-12-17T20:58:29.301Z,49.50
2022-12-17T21:01:09.954Z,50.40
2022-12-17T21:03:37.743Z,47.27
2022-12-17T21:06:07.042Z,49.87
2022-12-17T21:08:34.288Z,50.77
2022-12-17T21:11:01.490Z,52.63
2022-12-17T21:13:31.270Z,46.43
2022-12-17T21:15:59.286Z,56.93
2022-12-17T21:18:29.831Z,55.60
2022-12-17T21:20:58.346Z,53.30
2022-12-17T21:23:25.463Z,55.93
2022-12-17T21:26:00.625Z,53.13
2022-12-17T21:28:28.990Z,49.63
2022-12-17T21:30:56.025Z,48.17
2022-12-17T21:33:23.150Z,45.17
2022-12-17T21:35:58.101Z,43.00
2022-12-17T21:38:24.986Z,43.57
2022-12-17T21:40:51.839Z,41.07
2022-12-17T21:43:18.873Z,40.90
2022-12-17T21:45:45.956Z,39.97
2022-12-17T21:48:15.328Z,42.73
2022-12-17T21:50:43.249Z,43.97
2022-12-17T21:53:12.599Z,42.07
2022-12-17T21:55:39.515Z,46.03
2022-12-17T21:58:06.655Z,46.60
2022-12-17T22:00:33.825Z,44.90
2022-12-17T22:03:01.296Z,46.63
2022-12-17T22:05:28.840Z,48.50
2022-12-17T22:07:55.813Z,49.20
2022-12-17T22:10:47.570Z,48.37
2022-12-17T22:13:30.063Z,49.60
2022-12-17T22:15:57.043Z,51.83
2022-12-17T22:18:25.081Z,48.93
2022-12-17T22:20:58.910Z,53.17
2022-12-17T22:23:25.959Z,48.93
2022-12-17T22:25:54.514Z,48.47
2022-12-17T22:28:21.519Z,51.33
2022-12-17T22:31:08.349Z,49.20
2022-12-17T22:33:47.522Z,51.00
2022-12-17T22:38:32.202Z,79.23
2022-12-17T22:43:32.193Z,58.43
2022-12-17T22:44:36.031Z,54.43
2022-12-17T22:45:10.510Z,50.50
2022-12-17T22:47:38.229Z,48.93
2022-12-17T22:50:06.087Z,50.07
2022-12-17T22:52:33.438Z,48.83
2022-12-17T22:55:00.590Z,42.13
2022-12-17T22:57:37.617Z,45.70
2022-12-17T23:00:13.694Z,50.83
2022-12-17T23:02:40.668Z,49.57
2022-12-17T23:05:08.290Z,51.50
2022-12-17T23:07:35.247Z,53.83
2022-12-17T23:10:02.109Z,47.50
2022-12-17T23:12:48.867Z,51.87
2022-12-17T23:15:18.446Z,44.57
2022-12-17T23:17:45.329Z,49.27
2022-12-17T23:20:13.115Z,43.93
2022-12-17T23:22:40.090Z,49.30
2022-12-17T23:25:08.015Z,44.83
2022-12-17T23:27:36.322Z,44.97
2022-12-17T23:30:09.611Z,44.43
2022-12-17T23:32:37.385Z,47.30
2022-12-17T23:35:05.055Z,43.17
2022-12-17T23:37:36.528Z,41.53
2022-12-17T23:40:07.938Z,38.07
2022-12-17T23:42:36.200Z,41.27
2022-12-17T23:45:03.969Z,40.43
2022-12-17T23:47:31.803Z,37.07
2022-12-17T23:49:58.670Z,42.07
2022-12-17T23:52:25.922Z,39.97
2022-12-17T23:54:52.797Z,38.63
2022-12-17T23:57:19.706Z,42.10
2022-12-17T23:59:47.948Z,41.70
